Time;durP1;ratioP1;P1;durP2;ratioP2;P2;SDS_P1;SDS_P2;PMS_P1;PMS_P2;Temp;Humidity;BMP_temperature;BMP_pressure;BME280_temperature;BME280_humidity;BME280_pressure;Samples;Min_cycle;Max_cycle;Signal;HPM_P1;HPM_P2
2023/04/02 00:01:19;;;;;;;2.15;1.40;;;10.50;99.90;;;10.39;100.00;100053.00;5143295;28;20047;-70
2023/04/02 00:04:21;;;;;;;3.40;1.63;;;10.40;99.90;;;10.38;100.00;100064.28;5143227;28;20043;-68
2023/04/02 00:06:56;;;;;;;2.10;1.33;;;10.50;99.90;;;10.39;100.00;100068.63;5143038;28;20515;-68
2023/04/02 00:09:36;;;;;;;2.58;1.90;;;10.40;99.90;;;10.38;100.00;100069.50;5143097;28;20451;-69
2023/04/02 00:12:19;;;;;;;2.53;1.65;;;10.50;99.90;;;10.41;100.00;100072.16;5145166;28;20043;-67
2023/04/02 00:14:56;;;;;;;2.70;1.60;;;10.40;99.90;;;10.43;100.00;100074.78;5146482;28;20097;-68
2023/04/02 00:17:28;;;;;;;3.15;1.98;;;10.50;99.90;;;10.38;100.00;100081.63;5146667;28;20043;-68
2023/04/02 00:20:06;;;;;;;1.92;1.33;;;10.50;99.90;;;10.35;100.00;100082.41;5146637;28;20125;-67
2023/04/02 00:22:45;;;;;;;2.80;1.70;;;10.40;99.90;;;10.34;100.00;100080.66;5145589;28;20423;-71
2023/04/02 00:25:17;;;;;;;3.15;1.60;;;10.40;99.90;;;10.33;100.00;100092.81;5145543;28;20678;-69
2023/04/02 00:27:49;;;;;;;2.83;1.50;;;10.40;99.90;;;10.29;100.00;100103.09;5145167;28;20054;-69
2023/04/02 00:30:23;;;;;;;2.88;1.90;;;10.40;99.90;;;10.27;100.00;100100.47;5146276;28;20148;-66
2023/04/02 00:32:55;;;;;;;2.03;1.65;;;10.40;99.90;;;10.30;100.00;100107.47;5146449;28;20109;-68
2023/04/02 00:35:29;;;;;;;2.35;1.60;;;10.40;99.90;;;10.30;100.00;100111.00;5145114;28;20042;-67
2023/04/02 00:38:02;;;;;;;2.35;1.70;;;10.40;99.90;;;10.32;100.00;100108.41;5145013;28;20055;-68
2023/04/02 00:40:34;;;;;;;1.80;1.48;;;10.40;99.90;;;10.35;100.00;100118.91;5146048;28;20043;-69
2023/04/02 00:43:15;;;;;;;2.67;1.70;;;10.40;99.90;;;10.37;100.00;100122.44;5144719;28;20051;-68
2023/04/02 00:45:55;;;;;;;3.00;1.92;;;10.40;99.90;;;10.30;100.00;100123.09;5146485;28;20134;-71
2023/04/02 00:48:41;;;;;;;2.47;1.60;;;10.40;99.90;;;10.28;100.00;100123.06;5145046;28;20085;-69
2023/04/02 00:51:19;;;;;;;3.35;1.60;;;10.40;99.90;;;10.33;100.00;100125.81;5144528;28;20157;-69
2023/04/02 00:53:55;;;;;;;2.72;1.63;;;10.40;99.90;;;10.31;100.00;100123.16;5144825;28;20526;-69
2023/04/02 00:56:32;;;;;;;2.05;1.35;;;10.40;99.90;;;10.33;100.00;100133.63;5144950;28;20051;-70
2023/04/02 00:59:04;;;;;;;1.70;1.40;;;10.40;99.90;;;10.35;100.00;100134.53;5144467;28;20566;-69
2023/04/02 01:01:41;;;;;;;2.40;1.70;;;10.40;99.90;;;10.37;100.00;100145.88;5144403;28;20054;-69
2023/04/02 01:04:31;;;;;;;2.25;1.48;;;10.40;99.90;;;10.40;100.00;100145.06;5145923;28;20043;-69
2023/04/02 01:07:07;;;;;;;3.67;2.10;;;10.50;99.90;;;10.36;100.00;100140.63;5144513;28;20396;-69
2023/04/02 01:10:08;;;;;;;3.65;1.60;;;10.40;99.90;;;10.35;100.00;100147.53;5149126;28;20503;-69
2023/04/02 01:12:52;;;;;;;2.67;1.73;;;10.40;99.90;;;10.31;100.00;100150.94;5161994;28;20054;-68
2023/04/02 01:15:30;;;;;;;3.75;2.10;;;10.40;99.90;;;10.31;100.00;100162.25;5144298;28;20099;-68
2023/04/02 01:18:25;;;;;;;3.65;2.00;;;10.40;99.90;;;10.29;100.00;100165.63;5145355;28;20047;-69
2023/04/02 01:21:29;;;;;;;3.03;1.60;;;10.40;99.90;;;10.30;100.00;100167.38;5145174;28;20043;-67
2023/04/02 01:24:05;;;;;;;2.72;1.65;;;10.40;99.90;;;10.30;100.00;100173.50;5144248;28;20555;-69
2023/04/02 01:26:59;;;;;;;4.00;1.70;;;10.40;99.90;;;10.35;100.00;100176.22;5145268;28;20043;-68
2023/04/02 01:29:37;;;;;;;1.98;1.40;;;10.40;99.90;;;10.37;100.00;100182.34;5142600;28;20051;-70
2023/04/02 01:32:13;;;;;;;2.33;1.60;;;10.40;99.90;;;10.39;100.00;100185.88;5145134;28;20166;-70
2023/04/02 01:34:48;;;;;;;2.42;1.60;;;10.40;99.90;;;10.40;100.00;100195.44;5143717;28;20107;-67
2023/04/02 01:37:35;;;;;;;2.20;1.20;;;10.40;99.90;;;10.41;100.00;100197.22;5143624;28;20061;-67
2023/04/02 01:40:21;;;;;;;;;;;10.40;99.90;;;10.43;100.00;100205.06;5144051;28;20117;-67
2023/04/02 01:43:06;;;;;;;2.83;1.70;;;10.40;99.90;;;10.41;100.00;100206.75;5143468;28;19922;-70
2023/04/02 01:45:41;;;;;;;2.75;1.52;;;10.40;99.90;;;10.42;100.00;100206.78;5144935;28;20101;-70
2023/04/02 01:48:16;;;;;;;;;;;10.50;99.90;;;10.41;100.00;100210.25;5143796;28;20054;-68
2023/04/02 01:50:51;;;;;;;2.92;1.48;;;10.40;99.90;;;10.42;100.00;100218.94;5143541;28;19922;-68
2023/04/02 01:53:28;;;;;;;3.08;1.40;;;10.40;99.90;;;10.40;100.00;100224.13;5143651;28;20081;-68
2023/04/02 01:56:03;;;;;;;2.33;1.77;;;10.40;99.90;;;10.40;100.00;100224.13;5143433;28;20170;-67
2023/04/02 01:58:36;;;;;;;3.22;1.60;;;10.50;99.90;;;10.40;100.00;100231.94;5144438;28;20042;-68
2023/04/02 02:01:17;;;;;;;4.53;1.83;;;10.40;99.90;;;10.41;100.00;100231.09;5150349;28;20051;-67
2023/04/02 02:03:50;;;;;;;3.45;1.88;;;10.40;99.90;;;10.41;100.00;100240.63;5127154;28;20149;-68
2023/04/02 02:06:24;;;;;;;3.25;1.95;;;10.40;99.90;;;10.41;100.00;100244.09;5133336;28;20455;-70
2023/04/02 02:09:00;;;;;;;2.67;1.33;;;10.40;99.90;;;10.40;100.00;100251.88;5127609;28;20534;-69
2023/04/02 02:11:35;;;;;;;3.25;2.13;;;10.40;99.90;;;10.39;100.00;100256.22;5132162;28;20451;-68
2023/04/02 02:14:15;;;;;;;5.63;2.80;;;10.40;99.90;;;10.38;100.00;100251.84;5128952;28;20070;-68
2023/04/02 02:16:52;;;;;;;4.07;2.10;;;10.30;99.90;;;10.37;100.00;100270.03;5138120;28;20051;-69
2023/04/02 02:19:28;;;;;;;5.93;2.33;;;10.40;99.90;;;10.35;100.00;100274.31;5131094;28;20047;-67
2023/04/02 02:22:11;;;;;;;5.30;2.67;;;10.40;99.90;;;10.36;100.00;100281.28;5128042;28;20145;-67
2023/04/02 02:24:44;;;;;;;5.40;2.85;;;10.30;99.90;;;10.33;100.00;100282.09;5143145;28;20499;-70
2023/04/02 02:27:48;;;;;;;6.53;3.38;;;10.30;99.90;;;10.27;100.00;100289.75;5142873;28;20467;-68
2023/04/02 02:30:25;;;;;;;4.30;2.35;;;10.30;99.90;;;10.23;100.00;100300.91;5137800;28;20499;-68
2023/04/02 02:33:07;;;;;;;2.42;1.70;;;10.30;99.90;;;10.17;100.00;100299.00;5127280;28;20059;-68
2023/04/02 02:35:49;;;;;;;3.15;1.52;;;10.20;99.90;;;10.11;100.00;100304.03;5130917;28;20054;-67
2023/04/02 02:38:49;;;;;;;1.75;1.17;;;10.20;99.90;;;10.07;100.00;100313.47;5130583;28;20543;-69
2023/04/02 02:41:33;;;;;;;1.27;1.08;;;10.10;99.90;;;9.97;100.00;100311.41;5130540;28;20048;-67
2023/04/02 02:44:17;;;;;;;1.17;0.90;;;10.10;99.90;;;9.90;100.00;100327.69;5142900;28;20053;-68
2023/04/02 02:46:54;;;;;;;1.38;0.80;;;10.00;99.90;;;9.87;100.00;100332.84;5126069;28;20073;-67
2023/04/02 02:49:32;;;;;;;1.08;0.90;;;10.00;99.90;;;9.83;100.00;100336.16;5124162;28;20053;-68
2023/04/02 02:52:16;;;;;;;0.80;0.60;;;9.90;99.90;;;9.78;100.00;100340.38;5121797;28;20424;-70
2023/04/02 02:55:13;;;;;;;0.80;0.80;;;9.90;99.90;;;9.76;100.00;100347.22;5136759;28;20066;-69
2023/04/02 02:57:58;;;;;;;2.22;1.08;;;9.90;99.90;;;9.68;100.00;100347.00;5137666;28;20144;-69
2023/04/02 03:00:36;;;;;;;1.08;0.88;;;9.80;99.90;;;9.71;100.00;100354.00;5141228;28;20527;-67
2023/04/02 03:03:15;;;;;;;1.48;1.08;;;9.80;99.90;;;9.71;100.00;100361.81;5136146;28;20085;-67
2023/04/02 03:05:56;;;;;;;1.08;0.80;;;9.80;99.90;;;9.75;100.00;100361.09;5141180;28;20047;-69
2023/04/02 03:08:33;;;;;;;;;;;9.80;99.90;;;9.72;100.00;100361.00;5132148;28;20196;-69
2023/04/02 03:11:12;;;;;;;1.50;1.10;;;9.80;99.90;;;9.70;100.00;100370.47;5136953;28;19965;-67
2023/04/02 03:13:51;;;;;;;1.35;1.10;;;9.80;99.90;;;9.68;100.00;100377.34;5152396;28;20057;-68
2023/04/02 03:16:29;;;;;;;1.48;1.23;;;9.80;99.90;;;9.68;100.00;100383.44;5137189;28;20530;-69
2023/04/02 03:19:07;;;;;;;2.47;1.40;;;9.80;99.90;;;9.67;100.00;100388.59;5153924;28;20045;-69
2023/04/02 03:21:50;;;;;;;2.25;1.90;;;9.70;99.90;;;9.66;100.00;100394.66;5142399;28;20431;-69
2023/04/02 03:24:32;;;;;;;1.95;1.20;;;9.70;99.90;;;9.66;100.00;100399.84;5132861;28;20047;-68
2023/04/02 03:27:12;;;;;;;3.28;2.10;;;9.70;99.90;;;9.59;100.00;100401.38;5134785;28;20048;-67
2023/04/02 03:30:00;;;;;;;2.22;1.45;;;9.70;99.90;;;9.54;100.00;100409.84;5138539;28;20122;-68
2023/04/02 03:32:37;;;;;;;2.65;1.73;;;9.70;99.90;;;9.49;100.00;100412.28;5138685;28;20054;-68
2023/04/02 03:35:20;;;;;;;2.80;1.67;;;9.60;99.90;;;9.49;100.00;100422.72;5129171;28;20138;-69
2023/04/02 03:38:02;;;;;;;3.15;2.45;;;9.60;99.90;;;9.47;100.00;100426.97;5128954;28;20477;-69
2023/04/02 03:40:41;;;;;;;2.20;1.65;;;9.60;99.90;;;9.44;100.00;100430.34;5136858;28;20051;-67
2023/04/02 03:43:20;;;;;;;3.65;1.52;;;9.60;99.90;;;9.46;100.00;100433.91;5143620;28;20512;-69
2023/04/02 03:46:02;;;;;;;2.58;1.52;;;9.50;99.90;;;9.44;100.00;100437.28;5141752;28;20046;-70
2023/04/02 03:48:41;;;;;;;2.95;1.85;;;9.50;99.90;;;9.40;100.00;100449.31;5134869;28;20130;-69
2023/04/02 03:51:18;;;;;;;2.60;1.42;;;9.50;99.90;;;9.40;100.00;100449.31;5132957;28;20055;-69
2023/04/02 03:53:53;;;;;;;3.20;2.03;;;9.50;99.90;;;9.40;100.00;100454.50;5144865;28;20035;-69
2023/04/02 03:56:30;;;;;;;;;;;9.50;99.90;;;9.37;100.00;100454.38;5137596;28;20050;-67
2023/04/02 03:59:12;;;;;;;3.28;1.70;;;9.50;99.90;;;9.35;100.00;100463.88;5151664;28;19932;-69
2023/04/02 04:01:54;;;;;;;1.98;1.40;;;9.50;99.90;;;9.36;100.00;100464.75;5138806;28;20045;-67
2023/04/02 04:04:31;;;;;;;2.25;1.50;;;9.50;99.90;;;9.37;100.00;100483.00;5151453;28;20050;-68
2023/04/02 04:07:03;;;;;;;3.40;1.58;;;9.40;99.90;;;9.36;100.00;100482.97;5137872;28;20366;-67
2023/04/02 04:09:39;;;;;;;2.08;1.50;;;9.40;99.90;;;9.33;100.00;100483.75;5135569;28;20042;-69
2023/04/02 04:12:27;;;;;;;2.67;1.50;;;9.40;99.90;;;9.36;100.00;100494.25;5132776;28;20059;-69
2023/04/02 04:15:06;;;;;;;3.75;1.85;;;9.40;99.90;;;9.33;100.00;100499.34;5137637;28;20047;-68
2023/04/02 04:17:52;;;;;;;3.42;1.88;;;9.40;99.90;;;9.29;100.00;100507.88;5127840;28;20065;-67
2023/04/02 04:20:34;;;;;;;3.03;2.03;;;9.40;99.90;;;9.27;100.00;100517.34;5144188;28;20046;-71
2023/04/02 04:23:18;;;;;;;3.58;2.30;;;9.40;99.90;;;9.22;100.00;100524.09;5137545;28;20491;-67
2023/04/02 04:25:58;;;;;;;5.55;2.10;;;9.30;99.90;;;9.18;100.00;100522.19;5132418;28;20420;-67
2023/04/02 04:28:40;;;;;;;4.10;2.38;;;9.30;99.90;;;9.13;100.00;100522.06;5125354;29;20055;-69
2023/04/02 04:31:24;;;;;;;3.88;2.03;;;9.30;99.90;;;9.09;100.00;100530.56;5125375;29;20123;-68
2023/04/02 04:34:03;;;;;;;4.50;2.80;;;9.20;99.90;;;9.04;100.00;100536.41;5136431;28;20054;-69
2023/04/02 04:36:52;;;;;;;4.53;2.22;;;9.20;99.90;;;9.03;100.00;100545.06;5128376;28;20538;-67
2023/04/02 04:39:34;;;;;;;4.28;2.40;;;9.20;99.90;;;9.05;100.00;100551.19;5136534;28;20050;-68
2023/04/02 04:42:17;;;;;;;6.72;2.95;;;9.20;99.90;;;9.06;100.00;100555.56;5124509;28;20051;-68
2023/04/02 04:44:56;;;;;;;4.82;2.78;;;9.20;99.90;;;9.04;100.00;100568.50;5218262;23;20058;-72
2023/04/02 04:47:33;;;;;;;4.65;2.47;;;9.20;99.90;;;9.04;100.00;100571.09;5159160;28;20524;-73
2023/04/02 04:50:12;;;;;;;5.72;3.20;;;9.20;99.90;;;9.04;100.00;100578.03;5158544;28;20133;-72
2023/04/02 04:52:45;;;;;;;4.32;2.40;;;9.10;99.90;;;9.03;100.00;100584.06;5143785;28;20047;-74
2023/04/02 04:55:29;;;;;;;4.85;2.72;;;9.10;99.90;;;9.02;100.00;100587.50;5151758;28;20137;-72
2023/04/02 04:58:16;;;;;;;5.03;2.67;;;9.10;99.90;;;8.99;100.00;100603.84;5159871;28;20093;-72
2023/04/02 05:01:00;;;;;;;5.10;2.78;;;9.10;99.90;;;9.01;100.00;100610.00;5168310;28;20046;-73
2023/04/02 05:03:37;;;;;;;6.70;3.42;;;9.10;99.90;;;8.97;100.00;100614.19;5158522;28;20050;-73
2023/04/02 05:06:25;;;;;;;4.47;2.60;;;9.10;99.90;;;8.95;100.00;100621.06;5148365;28;20050;-73
2023/04/02 05:09:06;;;;;;;5.43;2.50;;;9.10;99.90;;;8.94;100.00;100624.50;5159693;28;20047;-73
2023/04/02 05:11:44;;;;;;;4.70;2.58;;;9.00;99.90;;;8.93;100.00;100627.91;5152120;28;20062;-73
2023/04/02 05:14:27;;;;;;;4.18;2.70;;;9.00;99.90;;;8.93;100.00;100638.31;5157952;28;20053;-73
2023/04/02 05:17:07;;;;;;;5.03;2.63;;;9.00;99.90;;;8.88;100.00;100644.16;5159751;28;20045;-73
2023/04/02 05:19:45;;;;;;;3.75;2.33;;;9.00;99.90;;;8.86;100.00;100651.88;5157369;28;20290;-73
2023/04/02 05:22:28;;;;;;;4.78;2.47;;;9.00;99.90;;;8.84;100.00;100645.75;5158159;28;20054;-74
2023/04/02 05:25:15;;;;;;;5.18;2.83;;;9.00;99.90;;;8.83;100.00;100661.28;5143311;28;20049;-73
2023/04/02 05:27:54;;;;;;;4.63;2.67;;;8.90;99.90;;;8.81;100.00;100669.03;5158426;28;20047;-73
2023/04/02 05:30:53;;;;;;;4.63;2.55;;;8.90;99.90;;;8.80;100.00;100677.66;5159143;28;20054;-72
2023/04/02 05:33:29;;;;;;;4.57;2.50;;;8.90;99.90;;;8.75;100.00;100684.38;5157128;28;20482;-73
2023/04/02 05:36:10;;;;;;;4.82;2.58;;;8.90;99.90;;;8.74;100.00;100687.81;5152193;28;20047;-73
2023/04/02 05:38:49;;;;;;;3.92;2.38;;;8.90;99.90;;;8.72;100.00;100692.03;5169272;28;20082;-73
2023/04/02 05:41:31;;;;;;;4.00;2.13;;;8.80;99.90;;;8.71;100.00;100698.06;5154097;28;20058;-73
2023/04/02 05:44:10;;;;;;;3.50;2.10;;;8.80;99.90;;;8.73;100.00;100699.00;5155483;28;20046;-73
2023/04/02 05:46:50;;;;;;;3.35;2.25;;;8.80;99.90;;;8.74;100.00;100706.00;5145483;28;20122;-74
2023/04/02 05:49:30;;;;;;;3.08;2.00;;;8.80;99.90;;;8.73;100.00;100717.19;5158641;28;20046;-73
2023/04/02 05:52:07;;;;;;;4.30;2.20;;;8.80;99.90;;;8.71;100.00;100718.84;5155392;28;20134;-73
2023/04/02 05:54:45;;;;;;;3.05;2.30;;;8.80;99.90;;;8.67;100.00;100727.31;5146185;28;20551;-73
2023/04/02 05:57:23;;;;;;;4.15;2.08;;;8.80;99.90;;;8.64;100.00;100735.00;5150572;28;20133;-73
2023/04/02 05:59:59;;;;;;;3.80;1.95;;;8.80;99.90;;;8.63;100.00;100739.31;5162049;28;20038;-74
2023/04/02 06:02:38;;;;;;;3.20;2.05;;;8.80;99.90;;;8.63;100.00;100743.63;5154766;28;20039;-73
2023/04/02 06:05:16;;;;;;;3.33;2.03;;;8.80;99.90;;;8.61;100.00;100753.09;5151071;28;20039;-56
2023/04/02 06:07:52;;;;;;;3.00;2.28;;;8.70;99.90;;;8.62;100.00;100760.06;5156246;28;20473;-57
2023/04/02 06:10:29;;;;;;;2.97;2.10;;;8.70;99.90;;;8.62;100.00;100754.84;5149292;28;20230;-56
2023/04/02 06:13:07;;;;;;;3.58;1.98;;;8.70;99.90;;;8.60;100.00;100766.88;5158167;28;20046;-56
2023/04/02 06:15:44;;;;;;;2.20;1.73;;;8.70;99.90;;;8.57;100.00;100771.97;5149634;28;20043;-55
2023/04/02 06:18:28;;;;;;;3.65;2.20;;;8.70;99.90;;;8.54;100.00;100783.13;5156925;28;20622;-55
2023/04/02 06:21:05;;;;;;;4.05;1.92;;;8.70;99.90;;;8.52;100.00;100783.84;5157599;28;20069;-56
2023/04/02 06:23:41;;;;;;;4.57;1.95;;;8.70;99.90;;;8.51;100.00;100797.69;5143675;28;20054;-54
2023/04/02 06:26:24;;;;;;;3.35;2.20;;;8.60;99.90;;;8.50;100.00;100801.09;5161528;28;20458;-57
2023/04/02 06:29:02;;;;;;;3.08;1.92;;;8.60;99.90;;;8.51;100.00;100808.94;5149791;28;20049;-57
2023/04/02 06:31:39;;;;;;;2.88;1.90;;;8.60;99.90;;;8.51;100.00;100813.25;5157547;28;20043;-56
2023/04/02 06:34:18;;;;;;;3.30;2.10;;;8.60;99.90;;;8.52;100.00;100821.13;5151491;28;20055;-55
2023/04/02 06:37:18;;;;;;;2.47;1.73;;;8.60;99.90;;;8.52;100.00;100820.22;5142662;28;20047;-54
2023/04/02 06:39:51;;;;;;;4.60;2.28;;;8.60;99.90;;;8.52;100.00;100830.63;5155898;28;20126;-58
2023/04/02 06:42:28;;;;;;;2.67;1.73;;;8.70;99.90;;;8.53;100.00;100832.41;5165648;28;20043;-55
2023/04/02 06:45:32;;;;;;;4.00;2.00;;;8.60;99.90;;;8.55;100.00;100841.16;5144001;28;20066;-56
2023/04/02 06:48:21;;;;;;;3.90;2.20;;;8.70;99.90;;;8.57;100.00;100849.91;5165384;28;20397;-56
2023/04/02 06:51:06;;;;;;;2.35;1.65;;;8.70;99.90;;;8.54;100.00;100865.34;5160473;28;20050;-54
2023/04/02 06:53:41;;;;;;;3.15;2.05;;;8.60;99.90;;;8.56;100.00;100861.13;5152345;28;20077;-54
2023/04/02 06:56:30;;;;;;;3.22;2.08;;;8.70;99.90;;;8.57;100.00;100868.97;5154878;28;20050;-56
2023/04/02 06:59:06;;;;;;;3.08;1.98;;;8.70;99.90;;;8.57;100.00;100883.69;5149522;28;20062;-56
2023/04/02 07:01:45;;;;;;;3.50;2.30;;;8.70;99.90;;;8.57;100.00;100879.38;5142110;28;20054;-54
2023/04/02 07:04:20;;;;;;;4.70;2.50;;;8.70;99.90;;;8.55;100.00;100893.13;5149953;28;20043;-58
2023/04/02 07:06:56;;;;;;;3.30;2.08;;;8.60;99.90;;;8.54;100.00;100892.25;5153120;28;20043;-55
2023/04/02 07:09:31;;;;;;;3.40;2.20;;;8.60;99.90;;;8.51;100.00;100897.28;5156644;28;20053;-56
2023/04/02 07:12:11;;;;;;;4.38;2.58;;;8.60;99.90;;;8.52;100.00;100903.38;5162963;28;20101;-55
2023/04/02 07:14:46;;;;;;;4.75;2.45;;;8.60;99.90;;;8.52;100.00;100914.66;5152003;28;20163;-53
2023/04/02 07:17:19;;;;;;;;;;;8.60;99.90;;;8.55;100.00;100913.91;5140412;28;20153;-54
2023/04/02 07:19:52;;;;;;;4.07;2.38;;;8.60;99.90;;;8.56;100.00;100932.16;5155924;28;19996;-55
2023/04/02 07:22:27;;;;;;;4.00;2.28;;;8.70;99.90;;;8.53;100.00;100934.59;5160127;28;20055;-54
2023/04/02 07:25:02;;;;;;;4.32;2.72;;;8.70;99.90;;;8.51;100.00;100944.06;5153219;28;20528;-57
2023/04/02 07:27:35;;;;;;;3.40;2.13;;;8.60;99.90;;;8.51;100.00;100948.38;5155250;28;20042;-56
2023/04/02 07:30:08;;;;;;;4.82;2.90;;;8.60;99.90;;;8.51;100.00;100957.03;5145945;28;20055;-56
2023/04/02 07:32:41;;;;;;;4.30;2.50;;;8.60;99.90;;;8.48;100.00;100961.22;5147458;28;20046;-57
2023/04/02 07:35:13;;;;;;;5.50;2.90;;;8.60;99.90;;;8.41;100.00;100968.75;5150679;28;20051;-57
2023/04/02 07:37:47;;;;;;;3.55;2.40;;;8.60;99.90;;;8.40;100.00;100972.13;5145636;28;20496;-57
2023/04/02 07:40:22;;;;;;;4.38;2.70;;;8.60;99.90;;;8.41;100.00;100973.94;5146076;28;20051;-55
2023/04/02 07:42:55;;;;;;;3.90;2.28;;;8.60;99.90;;;8.48;100.00;100982.91;5148580;28;20046;-55
2023/04/02 07:45:27;;;;;;;3.85;2.83;;;8.60;99.90;;;8.55;100.00;100986.66;5150760;28;20466;-55
2023/04/02 07:48:05;;;;;;;5.20;3.00;;;8.60;99.90;;;8.57;100.00;100992.81;5153007;28;20046;-55
2023/04/02 07:50:37;;;;;;;4.22;2.60;;;8.70;99.90;;;8.55;100.00;100994.47;5145330;28;20054;-55
2023/04/02 07:53:29;;;;;;;3.97;2.78;;;8.70;99.90;;;8.53;100.00;101006.47;5145988;28;20410;-55
2023/04/02 07:56:04;;;;;;;4.85;2.95;;;8.70;99.90;;;8.50;100.00;101011.53;5145711;28;20038;-55
2023/04/02 07:58:36;;;;;;;3.90;2.22;;;8.60;99.90;;;8.47;100.00;101016.56;5146045;28;20043;-55
2023/04/02 08:01:17;;;;;;;3.75;2.55;;;8.60;99.90;;;8.52;100.00;101022.88;5156648;28;20135;-55
2023/04/02 08:03:50;;;;;;;4.38;2.20;;;8.60;99.90;;;8.53;100.00;101027.25;5161392;28;20046;-55
2023/04/02 08:06:24;;;;;;;4.55;2.78;;;8.60;99.90;;;8.53;100.00;101024.66;5145995;28;20054;-56
2023/04/02 08:08:58;;;;;;;6.15;3.45;;;8.70;99.90;;;8.52;100.00;101035.88;5146474;28;20135;-54
2023/04/02 08:11:30;;;;;;;5.28;3.10;;;8.60;99.90;;;8.41;100.00;101046.69;5153027;28;20402;-57
2023/04/02 08:14:02;;;;;;;5.28;3.40;;;8.60;99.90;;;8.39;100.00;101043.09;5153468;28;20054;-56
2023/04/02 08:16:46;;;;;;;5.45;2.53;;;8.60;99.90;;;8.41;100.00;101057.06;5144611;28;20047;-54
2023/04/02 08:19:19;;;;;;;4.78;2.75;;;8.60;99.90;;;8.45;100.00;101062.41;5145228;28;20053;-55
2023/04/02 08:21:52;;;;;;;5.10;3.08;;;8.60;99.90;;;8.47;100.00;101065.94;5152641;28;20046;-54
2023/04/02 08:24:25;;;;;;;5.10;2.75;;;8.60;99.90;;;8.49;100.00;101072.13;5153396;28;20069;-55
2023/04/02 08:26:58;;;;;;;4.78;3.03;;;8.60;99.90;;;8.52;100.00;101075.75;5147699;28;20046;-56
2023/04/02 08:29:31;;;;;;;5.07;3.00;;;8.60;99.90;;;8.57;100.00;101088.97;5156720;28;20052;-56
2023/04/02 08:32:03;;;;;;;4.68;2.40;;;8.70;99.90;;;8.58;100.00;101095.94;5152111;28;20085;-56
2023/04/02 08:34:35;;;;;;;4.85;2.80;;;8.70;99.90;;;8.61;100.00;101088.31;5152553;28;20043;-55
2023/04/02 08:37:08;;;;;;;3.38;2.40;;;8.70;99.90;;;8.59;100.00;101100.31;5152941;28;20334;-55
2023/04/02 08:39:42;;;;;;;4.72;2.90;;;8.70;99.90;;;8.57;100.00;101110.63;5144159;28;20053;-55
2023/04/02 08:42:23;;;;;;;4.55;2.78;;;8.70;99.90;;;8.55;100.00;101114.00;5149858;28;20044;-56
2023/04/02 08:45:11;;;;;;;4.60;2.50;;;8.70;99.90;;;8.57;100.00;101120.16;5160602;28;20389;-55
2023/04/02 08:47:46;;;;;;;5.28;3.03;;;8.70;99.90;;;8.56;100.00;101121.84;5146005;28;21271;-55
2023/04/02 08:50:29;;;;;;;5.53;2.53;;;8.70;99.90;;;8.59;100.00;101134.09;5156817;28;20057;-56
2023/04/02 08:53:05;;;;;;;5.28;2.85;;;8.70;99.90;;;8.60;100.00;101135.88;5160530;28;20464;-55
2023/04/02 08:55:42;;;;;;;4.93;2.60;;;8.70;99.90;;;8.60;100.00;101146.25;5151884;28;20125;-55
2023/04/02 08:58:27;;;;;;;4.65;2.70;;;8.70;99.90;;;8.59;100.00;101149.69;5144166;28;20117;-56
2023/04/02 09:01:03;;;;;;;4.32;2.50;;;8.70;99.90;;;8.59;100.00;101152.28;5154860;28;20042;-55
2023/04/02 09:03:40;;;;;;;5.68;2.67;;;8.70;99.90;;;8.56;100.00;101159.94;5155531;28;20065;-58
2023/04/02 09:06:17;;;;;;;4.40;2.47;;;8.70;99.90;;;8.55;100.00;101168.56;5143886;28;20061;-57
2023/04/02 09:08:51;;;;;;;4.25;2.40;;;8.70;99.90;;;8.58;100.00;101172.19;5157116;28;20099;-55
2023/04/02 09:11:33;;;;;;;4.57;2.75;;;8.70;99.90;;;8.59;100.00;101175.66;5149710;28;20035;-55
2023/04/02 09:14:15;;;;;;;6.40;3.28;;;8.70;99.90;;;8.57;100.00;101177.31;5158630;28;20055;-54
2023/04/02 09:16:53;;;;;;;6.57;3.47;;;8.70;99.90;;;8.47;100.00;101190.66;5156050;28;20399;-56
2023/04/02 09:19:33;;;;;;;6.28;3.10;;;8.70;99.90;;;8.41;100.00;101196.44;5149994;28;20049;-56
2023/04/02 09:22:09;;;;;;;7.53;3.50;;;8.60;99.90;;;8.41;100.00;101196.44;5163009;28;20042;-56
2023/04/02 09:24:41;;;;;;;6.45;3.38;;;8.60;99.90;;;8.46;100.00;101209.66;5163060;28;20066;-55
2023/04/02 09:27:19;;;;;;;6.47;3.88;;;8.60;99.90;;;8.40;100.00;101205.94;5150295;28;20046;-59
2023/04/02 09:29:55;;;;;;;6.88;3.53;;;8.60;99.90;;;8.40;100.00;101211.13;5135050;28;20062;-57
2023/04/02 09:32:46;;;;;;;7.63;3.58;;;8.60;99.90;;;8.39;100.00;101224.94;5142936;28;20053;-55
2023/04/02 09:35:22;;;;;;;8.50;4.10;;;8.60;99.90;;;8.40;100.00;101231.91;5150036;28;20054;-57
2023/04/02 09:38:20;;;;;;;8.93;4.18;;;8.60;99.90;;;8.41;100.00;101233.72;5143388;28;20496;-57
2023/04/02 09:41:00;;;;;;;7.13;3.53;;;8.60;99.90;;;8.40;100.00;101237.09;5150188;28;20061;-59
2023/04/02 09:43:36;;;;;;;7.50;3.80;;;8.60;99.90;;;8.52;100.00;101246.34;5145674;28;20050;-55
2023/04/02 09:46:23;;;;;;;7.47;3.78;;;8.70;99.90;;;8.57;100.00;101255.28;5155170;28;20121;-58
2023/04/02 09:48:59;;;;;;;7.40;3.50;;;8.70;99.90;;;8.62;100.00;101256.41;5160308;28;20400;-55
2023/04/02 09:51:35;;;;;;;5.47;3.20;;;8.70;99.90;;;8.66;100.00;101261.78;5142242;28;20053;-55
2023/04/02 09:54:13;;;;;;;6.18;3.50;;;8.80;99.90;;;8.69;100.00;101276.69;5157178;28;20063;-56
2023/04/02 09:57:02;;;;;;;6.35;3.33;;;8.80;99.90;;;8.61;100.00;101268.50;5151612;28;20053;-56
2023/04/02 09:59:36;;;;;;;7.75;3.92;;;8.80;99.90;;;8.52;100.00;101274.94;5160946;28;20428;-55
2023/04/02 10:02:25;;;;;;;5.68;3.25;;;8.70;99.90;;;8.55;100.00;101275.09;5154071;28;20046;-55
2023/04/02 10:05:03;;;;;;;5.45;3.30;;;8.70;99.90;;;8.57;100.00;101291.66;5161940;28;20093;-57
2023/04/02 10:07:41;;;;;;;7.32;3.33;;;8.70;99.90;;;8.65;100.00;101299.00;5154810;28;20488;-55
2023/04/02 10:10:21;;;;;;;6.55;3.58;;;8.80;99.90;;;8.73;100.00;101299.38;5146765;28;20080;-55
2023/04/02 10:13:01;;;;;;;7.00;3.40;;;8.80;99.90;;;8.66;100.00;101303.38;5157474;28;20117;-58
2023/04/02 10:15:41;;;;;;;7.57;3.97;;;8.80;99.90;;;8.57;100.00;101317.63;5162234;28;20054;-55
2023/04/02 10:18:23;;;;;;;5.57;2.90;;;8.80;99.90;;;8.54;100.00;101320.06;5157760;28;20315;-55
2023/04/02 10:20:58;;;;;;;6.40;3.08;;;8.70;99.90;;;8.56;100.00;101315.84;5144463;28;20053;-55
2023/04/02 10:23:32;;;;;;;7.57;4.20;;;8.70;99.90;;;8.58;100.00;101329.81;5162524;28;20536;-54
2023/04/02 10:26:22;;;;;;;7.22;3.50;;;8.70;99.90;;;8.52;100.00;101330.38;5160302;28;20046;-55
2023/04/02 10:29:14;;;;;;;6.50;3.97;;;8.70;99.90;;;8.53;100.00;101332.16;5153000;28;20045;-55
2023/04/02 10:31:59;;;;;;;6.88;3.55;;;8.70;99.90;;;8.57;100.00;101338.41;5161303;28;20660;-58
2023/04/02 10:34:42;;;;;;;6.93;3.50;;;8.70;99.90;;;8.61;100.00;101345.56;5154191;28;20602;-56
2023/04/02 10:38:05;;;;;;;7.05;3.35;;;8.70;99.90;;;8.73;100.00;101345.28;5154245;28;20063;-55
2023/04/02 10:40:42;;;;;;;6.13;3.30;;;8.80;99.90;;;8.80;100.00;101357.78;5162145;28;20061;-55
2023/04/02 10:43:42;;;;;;;7.97;3.72;;;8.90;99.90;;;8.82;100.00;101363.97;5175385;23;20140;-80
2023/04/02 10:46:22;;;;;;;8.35;4.03;;;8.90;99.90;;;8.77;100.00;101363.72;5162792;28;20050;-81
2023/04/02 10:49:08;;;;;;;7.07;3.90;;;8.90;99.90;;;8.73;100.00;101369.56;5182931;28;20050;-81
2023/04/02 10:51:46;;;;;;;7.95;3.88;;;8.90;99.90;;;8.70;100.00;101372.91;5185393;28;20046;-80
2023/04/02 10:54:39;;;;;;;5.63;3.45;;;8.90;99.90;;;8.68;100.00;101373.66;5173491;28;20116;-81
2023/04/02 10:57:29;;;;;;;6.05;3.63;;;8.80;99.90;;;8.67;100.00;101382.25;5181863;28;20560;-80
2023/04/02 11:00:15;;;;;;;6.55;3.30;;;8.80;99.90;;;8.63;100.00;101376.00;5183362;28;20046;-81
2023/04/02 11:02:53;;;;;;;6.13;3.22;;;8.80;99.90;;;8.68;100.00;101381.47;5179029;28;20050;-81
2023/04/02 11:05:39;;;;;;;6.07;3.30;;;8.80;99.90;;;8.72;100.00;101391.19;5175387;28;20054;-80
2023/04/02 11:08:20;;;;;;;6.10;3.28;;;8.80;99.90;;;8.81;100.00;101399.47;5171385;28;20074;-81
2023/04/02 11:10:59;;;;;;;5.97;2.97;;;8.90;99.90;;;8.91;100.00;101409.50;5182517;28;20053;-83